[ [{"id":"current","city":"Tucson","state":"AZ","station":"KTUS","time":1490820780,"time_local":"2017-03-29T13:53:00-0700","timezone_offset":"-7","current_temp":"75","current_temp_c":"24","dew_point":"26","dew_point_c":"-3","relative_humidity":"16","wind_speed":"9","wind_deg":"300","wind_dir":"WNW","wind_gust":"21","barometer":"30","weather":"","conditions":"Clear","icon":1,"text_icon":"clear","ceiling":"Unl","visibility":"10","heat_index":"75","heat_index_c":"24","wind_chill":"75","wind_chill_c":"24","feels_like":"75","feels_like_c":"24","snow_depth":"","high_temp_6hr":"69","high_temp":"71","low_temp_6hr":"47","low_temp":"51","precip_3hr":"","precip_6hr":"","precip":"","coded_weather":"NSW","enhanced_weather":"","report_text":"KTUS 292053Z 30008G18KT 10SM CLR 24/M03 A3000 RMK AO2 SLP126 T02391033 58012 ","daynight":"D","temp_trend":"HIGHER","wind_low":"9","wind_high":"21","update":"2017-03-29T20:53:00+0000","image":"http://bloximages.chicago2.vip.townnews.com/tucson.com/content/tncms/live/components/lee_core_2/resources/images/weather-icons/1.png?_dc=1450868986","radar_map":"http://bloximages.chicago2.vip.townnews.com/tucson.com/shared-content/art/townnews-weather/images/southwest_loop.gif?_dc=1490822403","radar_map_us":"http://bloximages.chicago2.vip.townnews.com/tucson.com/shared-content/art/townnews-weather/images/usa_loop.gif?_dc=1490822403"}] ]